createdAt,value
2019-05-15T00:01:05.419Z,1.47
2019-05-15T00:04:10.350Z,1.50
2019-05-15T00:07:15.185Z,1.27
2019-05-15T00:10:20.248Z,1.80
2019-05-15T00:13:25.163Z,1.20
2019-05-15T00:16:30.294Z,1.20
2019-05-15T00:19:35.216Z,1.10
2019-05-15T00:22:40.132Z,1.30
2019-05-15T00:25:45.307Z,1.93
2019-05-15T00:30:08.756Z,1.90
2019-05-15T00:33:13.779Z,1.37
2019-05-15T00:43:08.813Z,1.70
2019-05-15T00:46:13.789Z,1.50
2019-05-15T00:49:19.008Z,1.77
2019-05-15T00:52:24.074Z,2.50
2019-05-15T00:55:29.054Z,2.00
2019-05-15T00:58:34.054Z,1.80
2019-05-15T01:01:39.238Z,2.03
2019-05-15T01:04:44.352Z,1.60
2019-05-15T01:07:49.297Z,1.77
2019-05-15T01:10:54.308Z,1.70
2019-05-15T01:13:59.183Z,1.50
2019-05-15T01:17:03.891Z,1.60
2019-05-15T01:20:09.603Z,1.47
2019-05-15T01:23:14.297Z,1.50
2019-05-15T01:26:19.081Z,1.87
2019-05-15T01:29:36.534Z,1.40
2019-05-15T01:32:30.567Z,1.53
2019-05-15T01:35:35.496Z,1.70
2019-05-15T01:38:40.436Z,1.60
2019-05-15T01:41:45.381Z,1.27
2019-05-15T01:44:50.304Z,1.63
2019-05-15T01:47:55.294Z,1.50
2019-05-15T01:51:00.469Z,1.50
2019-05-15T01:54:05.300Z,1.23
2019-05-15T01:57:10.550Z,1.47
2019-05-15T02:00:18.871Z,1.30
2019-05-15T02:03:23.686Z,1.73
2019-05-15T02:06:28.674Z,1.83
2019-05-15T02:09:33.752Z,1.60
2019-05-15T02:12:39.140Z,1.43
2019-05-15T02:15:44.194Z,2.23
2019-05-15T02:18:49.275Z,2.00
2019-05-15T02:21:54.164Z,1.33
2019-05-15T02:24:59.405Z,1.57
2019-05-15T02:28:04.837Z,2.30
2019-05-15T02:31:10.693Z,2.03
2019-05-15T02:34:19.206Z,1.83
2019-05-15T02:37:22.171Z,1.70
2019-05-15T02:40:29.454Z,1.83
2019-05-15T02:43:33.794Z,1.40
2019-05-15T02:46:39.237Z,1.77
2019-05-15T02:49:44.323Z,1.50
2019-05-15T02:52:49.878Z,1.70
2019-05-15T02:55:54.918Z,1.30
2019-05-15T02:59:00.178Z,1.27
2019-05-15T03:02:05.285Z,1.67
2019-05-15T03:05:10.349Z,1.70
2019-05-15T03:08:15.233Z,1.90
2019-05-15T03:11:20.403Z,1.60
2019-05-15T03:14:25.450Z,2.13
2019-05-15T03:17:30.534Z,2.10
2019-05-15T03:20:38.626Z,1.93
2019-05-15T03:23:42.275Z,1.80
2019-05-15T03:26:49.661Z,2.40
2019-05-15T03:29:53.694Z,1.60
2019-05-15T03:33:03.967Z,1.90
2019-05-15T03:36:05.283Z,1.80
2019-05-15T03:39:10.432Z,2.03
2019-05-15T03:42:15.373Z,1.80
2019-05-15T03:45:20.226Z,2.30
2019-05-15T03:48:25.168Z,2.30
2019-05-15T03:51:30.319Z,2.20
2019-05-15T03:54:38.963Z,2.40
2019-05-15T03:57:42.136Z,2.20
2019-05-15T04:00:49.870Z,2.20
2019-05-15T04:03:53.662Z,1.93
2019-05-15T04:07:00.143Z,2.17
2019-05-15T04:10:05.800Z,1.90
2019-05-15T04:13:10.799Z,2.10
2019-05-15T04:16:18.839Z,1.90
2019-05-15T04:19:22.396Z,1.70
2019-05-15T04:22:29.148Z,1.60
2019-05-15T04:25:34.799Z,1.97
2019-05-15T04:28:42.249Z,1.40
2019-05-15T04:31:58.932Z,1.90
2019-05-15T04:34:54.276Z,1.90
2019-05-15T04:37:59.886Z,2.13
2019-05-15T04:41:05.179Z,1.60
2019-05-15T04:44:10.527Z,2.13
2019-05-15T04:47:18.945Z,2.23
2019-05-15T04:50:23.654Z,2.30
2019-05-15T04:53:29.666Z,2.30
2019-05-15T04:56:35.774Z,2.63
2019-05-15T04:59:40.827Z,1.60
2019-05-15T05:02:45.765Z,2.20
2019-05-15T05:05:51.110Z,2.30
2019-05-15T05:08:59.474Z,2.47
2019-05-15T05:12:03.197Z,1.97
2019-05-15T05:15:08.554Z,2.57
2019-05-15T05:18:13.825Z,2.13
2019-05-15T05:21:18.770Z,2.30
2019-05-15T05:24:23.910Z,2.13
2019-05-15T05:27:28.940Z,1.87
2019-05-15T05:30:34.189Z,1.83
2019-05-15T05:33:39.309Z,1.63
2019-05-15T05:36:44.391Z,2.20
2019-05-15T05:39:49.585Z,1.70
2019-05-15T05:42:54.609Z,2.27
2019-05-15T05:45:59.874Z,2.03
2019-05-15T05:49:04.940Z,2.03
2019-05-15T05:52:10.140Z,2.57
2019-05-15T05:55:15.247Z,2.10
2019-05-15T05:58:20.244Z,2.37
2019-05-15T06:01:25.126Z,2.43
2019-05-15T06:04:30.026Z,2.30
2019-05-15T06:07:35.473Z,2.50
2019-05-15T06:10:40.519Z,1.83
2019-05-15T06:13:45.478Z,2.47
2019-05-15T06:16:50.706Z,2.80
2019-05-15T06:19:55.637Z,3.30
2019-05-15T06:23:00.538Z,2.40
2019-05-15T06:26:05.718Z,3.20
2019-05-15T06:29:11.933Z,2.63
2019-05-15T06:32:19.521Z,3.30
2019-05-15T06:35:23.695Z,3.13
2019-05-15T06:38:30.931Z,2.57
2019-05-15T06:41:35.822Z,2.97
2019-05-15T06:44:40.817Z,4.33
2019-05-15T06:47:48.152Z,2.93
2019-05-15T06:50:52.873Z,3.30
2019-05-15T06:53:58.394Z,2.80
2019-05-15T06:57:03.495Z,3.20
2019-05-15T07:00:10.550Z,3.20
2019-05-15T07:03:21.391Z,2.57
2019-05-15T07:06:22.378Z,3.30
2019-05-15T07:09:28.568Z,3.10
2019-05-15T07:12:33.619Z,2.47
2019-05-15T07:15:38.652Z,3.03
2019-05-15T07:18:43.586Z,2.73
2019-05-15T07:21:48.828Z,2.50
2019-05-15T07:24:53.981Z,2.03
2019-05-15T07:27:59.545Z,2.57
2019-05-15T07:31:04.595Z,2.63
2019-05-15T07:34:09.495Z,2.37
2019-05-15T07:37:15.220Z,2.83
2019-05-15T07:40:20.903Z,2.37
2019-05-15T07:43:27.930Z,2.40
2019-05-15T07:46:32.340Z,2.37
2019-05-15T07:49:38.873Z,2.60
2019-05-15T07:52:44.077Z,2.53
2019-05-15T07:55:50.619Z,2.10
2019-05-15T07:58:58.459Z,2.63
2019-05-15T08:02:02.839Z,3.07
2019-05-15T08:05:10.391Z,2.80
2019-05-15T08:08:18.191Z,2.73
2019-05-15T08:11:24.755Z,2.00
2019-05-15T08:14:29.184Z,2.80
2019-05-15T08:17:34.249Z,2.50
2019-05-15T08:20:39.178Z,3.07
2019-05-15T08:23:44.231Z,2.30
2019-05-15T08:26:49.364Z,2.13
2019-05-15T08:29:54.325Z,2.07
2019-05-15T08:32:59.385Z,2.13
2019-05-15T08:36:04.381Z,2.23
2019-05-15T08:39:12.155Z,1.87
2019-05-15T08:42:20.051Z,1.97
2019-05-15T08:45:27.883Z,1.83
2019-05-15T08:48:32.943Z,0.90
2019-05-15T08:51:38.319Z,0.90
2019-05-15T08:54:43.528Z,0.70
2019-05-15T08:57:55.685Z,0.57
2019-05-15T09:00:55.423Z,1.20
2019-05-15T09:04:00.690Z,0.80
2019-05-15T09:07:05.735Z,0.90
2019-05-15T09:10:11.362Z,0.50
2019-05-15T09:13:18.755Z,0.67
2019-05-15T09:16:23.200Z,0.60
2019-05-15T09:19:28.215Z,0.90
2019-05-15T09:22:33.180Z,0.70
2019-05-15T09:25:40.457Z,0.60
2019-05-15T09:28:45.353Z,0.60
2019-05-15T09:31:50.468Z,0.80
2019-05-15T09:34:55.683Z,0.97
2019-05-15T09:38:01.432Z,0.70
2019-05-15T09:41:08.706Z,0.60
2019-05-15T09:44:13.168Z,0.80
2019-05-15T09:47:18.862Z,0.70
2019-05-15T09:50:24.235Z,1.30
2019-05-15T09:53:29.146Z,0.90
2019-05-15T09:56:34.066Z,1.50
2019-05-15T09:59:39.230Z,0.67
2019-05-15T10:02:44.804Z,1.07
2019-05-15T10:05:49.962Z,0.87
2019-05-15T10:08:55.189Z,0.70
2019-05-15T10:12:00.302Z,0.83
2019-05-15T10:15:10.491Z,0.90
2019-05-15T10:18:12.576Z,0.70
2019-05-15T10:21:18.591Z,0.70
2019-05-15T10:24:24.525Z,0.60
2019-05-15T10:27:29.694Z,0.70
2019-05-15T10:30:34.931Z,0.50
2019-05-15T10:33:39.955Z,0.80
2019-05-15T10:36:44.841Z,0.60
2019-05-15T10:39:52.719Z,2.03
2019-05-15T10:42:59.309Z,1.33
2019-05-15T10:46:03.653Z,0.70
2019-05-15T10:49:08.917Z,0.70
2019-05-15T10:52:14.024Z,0.57
2019-05-15T10:55:19.376Z,1.20
2019-05-15T10:58:24.655Z,0.70
2019-05-15T11:01:29.842Z,0.60
2019-05-15T11:04:35.057Z,0.70
2019-05-15T11:07:40.145Z,0.70
2019-05-15T11:10:45.316Z,0.60
2019-05-15T11:13:50.722Z,0.73
2019-05-15T11:17:01.543Z,0.50
2019-05-15T11:20:08.403Z,0.60
2019-05-15T11:23:19.514Z,0.70
2019-05-15T11:26:23.851Z,0.93
2019-05-15T11:29:28.712Z,0.70
2019-05-15T11:32:34.467Z,0.70
2019-05-15T11:35:56.466Z,1.10
2019-05-15T11:38:48.213Z,0.70
2019-05-15T11:41:52.810Z,1.87
2019-05-15T11:45:03.594Z,1.30
2019-05-15T11:48:09.105Z,0.60
2019-05-15T11:51:14.124Z,0.70
2019-05-15T11:54:19.272Z,0.80
2019-05-15T11:57:37.275Z,0.90
2019-05-15T12:00:31.268Z,0.80
2019-05-15T12:03:38.530Z,0.90
2019-05-15T12:06:58.202Z,0.70
2019-05-15T12:09:50.693Z,0.83
2019-05-15T12:12:55.970Z,0.80
2019-05-15T12:16:01.839Z,0.70
2019-05-15T12:19:09.613Z,0.63
2019-05-15T12:22:14.260Z,0.80
2019-05-15T12:25:19.435Z,1.00
2019-05-15T12:28:24.557Z,1.10
2019-05-15T12:31:30.338Z,0.90
2019-05-15T12:34:38.637Z,0.83
2019-05-15T12:37:42.649Z,0.83
2019-05-15T13:02:35.439Z,1.13
2019-05-15T13:05:40.482Z,1.10
2019-05-15T13:08:45.705Z,1.03
2019-05-15T13:11:50.836Z,1.00
2019-05-15T13:14:55.999Z,1.20
2019-05-15T13:18:01.403Z,1.10
2019-05-15T13:21:06.432Z,1.20
2019-05-15T13:24:11.558Z,1.00
2019-05-15T13:27:18.230Z,1.00
2019-05-15T13:30:24.078Z,1.00
2019-05-15T13:33:28.961Z,1.00
2019-05-15T13:36:34.283Z,1.20
2019-05-15T13:39:39.344Z,0.87
2019-05-15T13:42:44.629Z,1.20
2019-05-15T13:45:50.041Z,1.13
2019-05-15T13:48:56.288Z,0.90
2019-05-15T13:52:01.643Z,1.23
2019-05-15T13:55:08.570Z,0.90
2019-05-15T13:58:14.369Z,1.10
2019-05-15T14:01:19.740Z,1.00
2019-05-15T14:04:24.710Z,0.80
2019-05-15T14:07:44.679Z,1.00
2019-05-15T14:10:38.582Z,1.10
2019-05-15T14:13:43.452Z,0.90
2019-05-15T14:16:49.071Z,0.90
2019-05-15T14:19:54.269Z,0.90
2019-05-15T14:22:59.785Z,0.70
2019-05-15T14:26:17.597Z,0.87
2019-05-15T14:29:11.559Z,0.90
2019-05-15T14:32:22.742Z,1.30
2019-05-15T14:35:23.372Z,1.20
2019-05-15T14:38:29.019Z,1.00
2019-05-15T14:41:34.183Z,0.90
2019-05-15T14:44:39.157Z,1.00
2019-05-15T14:47:44.662Z,0.90
2019-05-15T14:50:49.703Z,1.13
2019-05-15T14:53:55.029Z,1.00
2019-05-15T14:57:00.178Z,1.00
2019-05-15T15:00:05.628Z,1.00
2019-05-15T15:03:11.782Z,1.00
2019-05-15T15:06:18.177Z,0.93
2019-05-15T15:09:23.757Z,1.17
2019-05-15T15:12:28.960Z,1.00
2019-05-15T15:15:33.854Z,0.77
2019-05-15T15:18:39.242Z,0.80
2019-05-15T15:21:44.294Z,1.30
2019-05-15T15:24:49.318Z,1.50
2019-05-15T15:27:54.609Z,1.30
2019-05-15T15:30:59.773Z,1.43
2019-05-15T15:34:04.881Z,1.60
2019-05-15T15:37:09.840Z,1.00
2019-05-15T15:40:14.859Z,0.90
2019-05-15T15:43:20.227Z,1.00
2019-05-15T15:46:25.316Z,1.10
2019-05-15T15:49:30.282Z,1.27
2019-05-15T15:52:35.418Z,1.20
2019-05-15T15:55:40.767Z,1.40
2019-05-15T15:58:45.883Z,1.00
2019-05-15T16:01:52.241Z,1.30
2019-05-15T16:04:58.880Z,1.10
2019-05-15T16:08:03.929Z,1.07
2019-05-15T16:11:08.827Z,1.50
2019-05-15T16:14:13.793Z,1.13
2019-05-15T16:17:19.074Z,1.27
2019-05-15T16:20:24.328Z,3.17
2019-05-15T16:23:29.388Z,3.13
2019-05-15T16:26:34.841Z,4.00
2019-05-15T16:29:39.850Z,3.90
2019-05-15T16:32:44.912Z,3.80
2019-05-15T16:35:50.026Z,4.13
2019-05-15T16:39:05.075Z,5.10
2019-05-15T16:42:02.386Z,6.53
2019-05-15T16:45:09.384Z,4.03
2019-05-15T16:48:14.886Z,4.37
2019-05-15T16:51:19.844Z,4.20
2019-05-15T16:54:25.464Z,4.50
2019-05-15T16:57:30.755Z,3.77
2019-05-15T17:00:35.646Z,4.77
2019-05-15T17:03:40.618Z,3.80
2019-05-15T17:06:45.517Z,4.73
2019-05-15T17:09:50.667Z,3.90
2019-05-15T17:12:57.863Z,4.00
2019-05-15T17:16:02.309Z,4.47
2019-05-15T17:19:08.742Z,5.53
2019-05-15T17:22:13.897Z,4.93
2019-05-15T17:25:19.137Z,4.73
2019-05-15T17:28:24.181Z,5.10
2019-05-15T17:31:29.097Z,5.27
2019-05-15T17:34:34.460Z,5.27
2019-05-15T17:37:39.658Z,4.97
2019-05-15T17:40:44.722Z,4.80
2019-05-15T17:43:49.988Z,4.57
2019-05-15T17:46:55.070Z,4.80
2019-05-15T17:50:00.152Z,4.33
2019-05-15T17:53:05.586Z,4.80
2019-05-15T17:56:10.930Z,4.33
2019-05-15T17:59:17.752Z,5.20
2019-05-15T18:02:22.926Z,4.90
2019-05-15T18:05:28.436Z,5.20
2019-05-15T18:08:33.739Z,5.83
2019-05-15T18:11:38.871Z,5.23
2019-05-15T18:14:43.963Z,6.47
2019-05-15T18:17:49.119Z,5.57
2019-05-15T18:20:54.075Z,6.17
2019-05-15T18:23:59.045Z,5.90
2019-05-15T18:27:04.218Z,6.80
2019-05-15T18:30:09.824Z,6.13
2019-05-15T18:33:15.021Z,5.23
2019-05-15T18:36:20.237Z,4.70
2019-05-15T18:39:25.266Z,7.40
2019-05-15T18:42:30.468Z,5.97
2019-05-15T18:45:35.209Z,5.70
2019-05-15T18:48:40.092Z,5.57
2019-05-15T18:51:45.250Z,4.67
2019-05-15T18:54:51.913Z,4.30
2019-05-15T18:57:58.454Z,6.00
2019-05-15T19:01:04.026Z,5.67
2019-05-15T19:04:09.583Z,6.30
2019-05-15T19:07:14.703Z,6.03
2019-05-15T19:10:20.682Z,5.67
2019-05-15T19:13:25.702Z,5.80
2019-05-15T19:16:31.784Z,6.13
2019-05-15T19:19:38.842Z,6.43
2019-05-15T19:22:44.211Z,5.80
2019-05-15T19:25:49.367Z,6.37
2019-05-15T19:28:54.583Z,7.13
2019-05-15T19:32:04.492Z,5.73
2019-05-15T19:35:10.703Z,6.00
2019-05-15T19:38:18.233Z,5.40
2019-05-15T19:41:28.874Z,5.93
2019-05-15T19:44:33.863Z,7.50
2019-05-15T19:47:39.238Z,6.37
2019-05-15T19:50:44.382Z,6.30
2019-05-15T19:53:49.360Z,6.60
2019-05-15T19:56:54.547Z,6.60
2019-05-15T19:59:59.708Z,7.33
2019-05-15T20:03:04.462Z,7.03
2019-05-15T20:06:09.468Z,7.57
2019-05-15T20:09:14.529Z,7.73
2019-05-15T20:12:19.835Z,7.60
2019-05-15T20:15:25.000Z,7.80
2019-05-15T20:18:30.238Z,8.03
2019-05-15T20:21:35.223Z,8.13
2019-05-15T20:24:40.291Z,8.60
2019-05-15T20:27:47.972Z,8.30
2019-05-15T20:30:52.561Z,8.73
2019-05-15T20:34:05.544Z,8.87
2019-05-15T20:37:04.401Z,9.43
2019-05-15T20:40:09.682Z,8.73
2019-05-15T20:43:14.791Z,8.77
2019-05-15T20:46:19.922Z,8.70
2019-05-15T20:49:25.386Z,11.77
2019-05-15T20:52:30.606Z,10.93
2019-05-15T20:55:37.937Z,10.23
2019-05-15T20:58:42.497Z,10.33
2019-05-15T21:01:48.254Z,10.20
2019-05-15T21:04:54.611Z,9.60
2019-05-15T21:07:59.625Z,12.53
2019-05-15T21:11:04.698Z,10.90
2019-05-15T21:14:10.060Z,15.30
2019-05-15T21:17:15.137Z,14.43
2019-05-15T21:20:20.417Z,13.73
2019-05-15T21:23:25.826Z,10.28
2019-05-15T21:26:31.141Z,10.80
2019-05-15T21:29:38.154Z,13.50
2019-05-15T21:32:42.754Z,10.87
2019-05-15T21:35:47.815Z,10.33
2019-05-15T21:38:52.809Z,10.40
2019-05-15T21:41:58.521Z,12.60
2019-05-15T21:45:03.926Z,12.20
2019-05-15T21:48:09.156Z,13.37
2019-05-15T21:51:14.362Z,9.80
2019-05-15T21:54:19.617Z,10.37
2019-05-15T21:57:32.907Z,13.43
2019-05-15T22:00:38.309Z,11.10
2019-05-15T22:03:43.697Z,10.73
2019-05-15T22:06:49.263Z,7.13
2019-05-15T22:09:54.487Z,9.00
2019-05-15T22:12:59.350Z,7.07
2019-05-15T22:16:04.785Z,5.90
2019-05-15T22:19:10.668Z,2.20
2019-05-15T22:22:17.874Z,1.90
2019-05-15T22:25:22.610Z,1.80
2019-05-15T22:28:28.239Z,1.80
2019-05-15T22:31:33.529Z,2.10
2019-05-15T22:34:38.606Z,2.40
2019-05-15T22:37:43.653Z,2.13
2019-05-15T22:40:48.818Z,2.60
2019-05-15T22:43:53.906Z,2.60
2019-05-15T22:46:59.090Z,1.80
2019-05-15T22:50:04.011Z,1.90
2019-05-15T22:53:10.564Z,1.77
2019-05-15T22:56:18.094Z,1.10
2019-05-15T22:59:22.520Z,1.10
2019-05-15T23:02:27.449Z,1.00
2019-05-15T23:05:32.540Z,1.00
2019-05-15T23:08:38.398Z,1.20
2019-05-15T23:11:43.656Z,0.80
2019-05-15T23:14:48.673Z,0.60
2019-05-15T23:17:53.843Z,0.70
2019-05-15T23:20:59.449Z,0.70
2019-05-15T23:24:04.560Z,0.60
2019-05-15T23:27:09.368Z,0.57
2019-05-15T23:30:14.546Z,0.60
2019-05-15T23:33:19.490Z,0.50
2019-05-15T23:36:24.605Z,0.60
2019-05-15T23:39:30.220Z,0.60
2019-05-15T23:42:35.304Z,0.50
2019-05-15T23:45:40.262Z,0.60
2019-05-15T23:48:45.296Z,0.70
2019-05-15T23:51:50.274Z,0.77
2019-05-15T23:54:55.180Z,0.50
2019-05-15T23:58:00.638Z,0.60
